Time;durP1;ratioP1;P1;durP2;ratioP2;P2;SDS_P1;SDS_P2;PMS_P1;PMS_P2;Temp;Humidity;BMP_temperature;BMP_pressure;BME280_temperature;BME280_humidity;BME280_pressure;Samples;Min_cycle;Max_cycle;Signal;HPM_P1;HPM_P2
2023/02/03 00:01:56;;;;;;;2.80;1.30;;;6.20;99.90;;;;;;5003339;28;20671;-80
2023/02/03 00:04:25;;;;;;;1.40;1.40;;;6.30;1.00;;;;;;4997456;28;21184;-80
2023/02/03 00:06:54;;;;;;;1.30;1.30;;;6.30;99.90;;;;;;5004965;28;20545;-80
2023/02/03 00:09:22;;;;;;;1.50;1.40;;;6.30;1.00;;;;;;5004848;28;20444;-80
2023/02/03 00:11:50;;;;;;;1.40;1.30;;;6.10;1.00;;;;;;5005346;28;20532;-83
2023/02/03 00:14:18;;;;;;;1.97;1.40;;;6.20;1.00;;;;;;5004283;28;20842;-86
2023/02/03 00:16:47;;;;;;;1.27;1.20;;;6.10;99.90;;;;;;5002872;28;20983;-86
2023/02/03 00:19:15;;;;;;;1.40;1.30;;;6.20;1.00;;;;;;5006712;28;21063;-86
2023/02/03 00:21:46;;;;;;;1.23;1.23;;;6.10;35.20;;;;;;5005859;28;20461;-86
2023/02/03 00:24:14;;;;;;;1.20;1.20;;;6.10;1.00;;;;;;5006915;28;20457;-84
2023/02/03 00:26:43;;;;;;;1.10;1.10;;;6.10;51.20;;;;;;5004150;28;20461;-85
2023/02/03 00:29:12;;;;;;;1.30;1.30;;;6.20;1.00;;;;;;5003671;28;20477;-84
2023/02/03 00:31:41;;;;;;;1.30;1.20;;;6.10;1.00;;;;;;5014480;28;20473;-85
2023/02/03 00:34:09;;;;;;;1.50;1.40;;;6.00;1.00;;;;;;5002777;28;20458;-84
2023/02/03 00:36:37;;;;;;;1.30;1.20;;;6.00;99.90;;;;;;5003472;28;20215;-84
2023/02/03 00:39:07;;;;;;;1.47;1.40;;;5.90;49.10;;;;;;4999106;28;20494;-82
2023/02/03 00:41:35;;;;;;;1.20;1.20;;;6.00;99.90;;;;;;5006576;28;20468;-81
2023/02/03 00:44:03;;;;;;;1.20;1.20;;;5.90;73.50;;;;;;5001622;28;20533;-82
2023/02/03 00:46:34;;;;;;;1.40;1.30;;;5.90;1.00;;;;;;5002779;28;20466;-81
2023/02/03 00:49:03;;;;;;;4.40;1.43;;;5.90;1.00;;;;;;5003309;28;20995;-81
2023/02/03 00:51:31;;;;;;;1.20;1.10;;;5.90;44.00;;;;;;5005650;28;20486;-81
2023/02/03 00:54:00;;;;;;;1.13;1.13;;;6.00;90.80;;;;;;5003204;28;20505;-83
2023/02/03 00:56:30;;;;;;;1.40;1.20;;;6.00;1.00;;;;;;5008026;28;20969;-82
2023/02/03 00:58:58;;;;;;;1.07;1.07;;;6.00;1.00;;;;;;5000096;28;20488;-84
2023/02/03 01:01:26;;;;;;;1.30;1.30;;;6.00;38.60;;;;;;5001517;28;20818;-83
2023/02/03 01:03:55;;;;;;;1.47;1.20;;;6.00;99.90;;;;;;5003087;28;20469;-82
2023/02/03 01:06:24;;;;;;;1.20;1.20;;;6.00;1.00;;;;;;5004159;28;20441;-83
2023/02/03 01:08:53;;;;;;;3.53;1.33;;;5.90;99.90;;;;;;5006636;28;20496;-83
2023/02/03 01:11:22;;;;;;;1.30;1.20;;;6.00;1.00;;;;;;5007551;28;20462;-83
2023/02/03 01:13:54;;;;;;;2.40;1.30;;;6.00;99.90;;;;;;5008530;28;20446;-83
2023/02/03 01:16:24;;;;;;;1.10;1.10;;;6.00;36.30;;;;;;5016772;28;20958;-83
2023/02/03 01:18:56;;;;;;;1.20;1.20;;;6.00;99.90;;;;;;5012693;28;20474;-83
2023/02/03 01:21:26;;;;;;;1.20;1.20;;;6.00;99.90;;;;;;5008560;28;20496;-83
2023/02/03 01:23:54;;;;;;;1.20;1.20;;;6.00;22.90;;;;;;5005835;28;20457;-82
2023/02/03 01:26:23;;;;;;;1.57;1.30;;;6.00;99.90;;;;;;5014589;28;20266;-83
2023/02/03 01:28:55;;;;;;;1.20;1.20;;;6.00;1.00;;;;;;5017415;28;20564;-82
2023/02/03 01:31:25;;;;;;;1.10;1.10;;;6.00;99.90;;;;;;5014834;28;20556;-83
2023/02/03 01:33:55;;;;;;;1.47;1.37;;;6.00;81.80;;;;;;5003532;28;20547;-84
2023/02/03 01:36:26;;;;;;;1.40;1.30;;;6.10;1.00;;;;;;5004177;28;20557;-84
2023/02/03 01:38:54;;;;;;;1.20;1.20;;;6.10;1.00;;;;;;5017426;28;20503;-83
2023/02/03 01:41:26;;;;;;;1.40;1.30;;;6.00;99.90;;;;;;5013051;28;20294;-84
2023/02/03 01:43:58;;;;;;;2.20;1.40;;;6.00;99.90;;;;;;5007522;28;20454;-85
2023/02/03 01:46:30;;;;;;;1.37;1.37;;;6.00;6.20;;;;;;5002035;28;20898;-82
2023/02/03 01:49:06;;;;;;;1.50;1.40;;;5.90;99.90;;;;;;4997016;28;20482;-84
2023/02/03 01:51:37;;;;;;;1.70;1.33;;;6.00;1.00;;;;;;5002598;28;20512;-84
2023/02/03 01:54:07;;;;;;;1.67;1.50;;;6.00;1.00;;;;;;5000317;28;20465;-85
2023/02/03 01:56:40;;;;;;;1.77;1.60;;;6.00;99.90;;;;;;5006316;28;20841;-84
2023/02/03 01:59:10;;;;;;;4.63;1.60;;;6.10;99.90;;;;;;5001246;28;20488;-82
2023/02/03 02:01:38;;;;;;;2.20;2.10;;;6.10;94.50;;;;;;5001333;28;20453;-85
2023/02/03 02:04:08;;;;;;;1.60;1.50;;;6.20;1.00;;;;;;5005263;28;20862;-85
2023/02/03 02:06:36;;;;;;;1.70;1.60;;;6.10;99.90;;;;;;5005757;28;20499;-83
2023/02/03 02:09:04;;;;;;;2.70;1.57;;;6.10;99.90;;;;;;5000629;28;20473;-84
2023/02/03 02:11:33;;;;;;;1.60;1.50;;;6.10;99.90;;;;;;5003559;28;20453;-84
2023/02/03 02:14:03;;;;;;;1.63;1.53;;;6.00;1.00;;;;;;5010900;28;20473;-83
2023/02/03 02:16:41;;;;;;;1.70;1.60;;;6.10;99.90;;;;;;5000404;28;20461;-84
2023/02/03 02:19:42;;;;;;;1.60;1.47;;;6.10;1.00;;;;;;5005150;28;20489;-81
2023/02/03 02:22:14;;;;;;;1.50;1.50;;;6.10;1.00;;;;;;5005827;28;20468;-83
2023/02/03 02:25:08;;;;;;;1.50;1.40;;;6.00;99.90;;;;;;5002675;28;20479;-82
2023/02/03 02:28:07;;;;;;;2.30;1.50;;;5.80;99.90;;;;;;5004394;28;20546;-82
2023/02/03 02:31:22;;;;;;;1.70;1.60;;;5.90;1.00;;;;;;4989318;28;20461;-82
2023/02/03 02:33:58;;;;;;;1.77;1.67;;;5.90;1.00;;;;;;4999655;28;20462;-82
2023/02/03 02:36:33;;;;;;;1.73;1.50;;;6.00;1.00;;;;;;5003783;28;20442;-81
2023/02/03 02:39:09;;;;;;;5.30;1.60;;;6.10;1.00;;;;;;5005817;28;20482;-82
2023/02/03 02:41:43;;;;;;;1.87;1.70;;;6.00;1.00;;;;;;5007933;28;20467;-82
2023/02/03 02:44:15;;;;;;;1.93;1.83;;;6.00;1.00;;;;;;5006910;28;20465;-83
2023/02/03 02:46:48;;;;;;;1.73;1.63;;;6.00;99.90;;;;;;5005657;28;20464;-81
2023/02/03 02:49:23;;;;;;;1.80;1.70;;;6.00;1.00;;;;;;5005570;28;20551;-82
2023/02/03 02:51:53;;;;;;;1.70;1.70;;;6.10;1.00;;;;;;5002230;28;20458;-82
2023/02/03 02:54:24;;;;;;;1.90;1.63;;;6.10;1.00;;;;;;5000323;28;20453;-81
2023/02/03 02:56:56;;;;;;;1.90;1.60;;;6.00;1.00;;;;;;5000607;28;20498;-82
2023/02/03 02:59:24;;;;;;;1.60;1.50;;;6.00;91.80;;;;;;5003134;28;20493;-82
2023/02/03 03:01:52;;;;;;;1.40;1.40;;;5.90;99.90;;;;;;5001740;28;20790;-81
2023/02/03 03:04:25;;;;;;;1.33;1.33;;;5.90;99.90;;;;;;5002291;28;20451;-82
2023/02/03 03:06:58;;;;;;;1.52;1.40;;;6.00;99.90;;;;;;5005067;28;20490;-81
2023/02/03 03:09:34;;;;;;;1.50;1.40;;;6.00;22.00;;;;;;5004691;28;20203;-82
2023/02/03 03:12:07;;;;;;;1.43;1.20;;;6.10;1.00;;;;;;5007533;28;20452;-81
2023/02/03 03:14:40;;;;;;;1.97;1.20;;;6.00;1.00;;;;;;5005184;28;20447;-81
2023/02/03 03:17:12;;;;;;;1.30;1.20;;;6.10;99.90;;;;;;5006530;28;20461;-82
2023/02/03 03:19:46;;;;;;;1.20;1.20;;;6.10;99.90;;;;;;5008142;28;20437;-82
2023/02/03 03:22:17;;;;;;;1.30;1.20;;;6.10;99.90;;;;;;5008900;28;20485;-81
2023/02/03 03:24:48;;;;;;;1.20;1.20;;;6.10;40.20;;;;;;5001715;28;20454;-82
2023/02/03 03:27:21;;;;;;;1.37;1.27;;;6.10;99.90;;;;;;5004071;28;20787;-81
2023/02/03 03:29:53;;;;;;;2.00;1.20;;;6.20;1.00;;;;;;5002810;28;20454;-81
2023/02/03 03:32:22;;;;;;;1.10;1.10;;;6.10;99.90;;;;;;5005239;28;20574;-81
2023/02/03 03:34:52;;;;;;;1.10;1.10;;;6.10;1.00;;;;;;5004734;28;20549;-81
2023/02/03 03:37:28;;;;;;;1.00;1.00;;;6.00;1.00;;;;;;5002360;28;20557;-81
2023/02/03 03:39:58;;;;;;;1.10;1.10;;;6.00;99.90;;;;;;5001904;28;20454;-82
2023/02/03 03:42:32;;;;;;;1.10;1.10;;;6.00;1.00;;;;;;4999687;28;20781;-82
2023/02/03 03:45:05;;;;;;;1.10;1.10;;;6.10;1.00;;;;;;4999308;28;20477;-83
2023/02/03 03:47:38;;;;;;;1.00;1.00;;;6.00;99.90;;;;;;5001508;28;20681;-82
2023/02/03 03:50:11;;;;;;;1.00;1.00;;;6.10;99.90;;;;;;5002095;28;20454;-82
2023/02/03 03:52:40;;;;;;;0.90;0.90;;;6.00;1.00;;;;;;5008002;28;20447;-82
2023/02/03 03:55:11;;;;;;;1.10;1.00;;;6.00;99.90;;;;;;5004814;28;21056;-81
2023/02/03 03:57:45;;;;;;;0.93;0.93;;;6.10;37.80;;;;;;5004076;28;21305;-82
2023/02/03 04:00:17;;;;;;;1.10;1.10;;;6.10;1.00;;;;;;5003434;28;20489;-82
2023/02/03 04:02:50;;;;;;;1.00;1.00;;;6.10;1.00;;;;;;4997205;28;20544;-83
2023/02/03 04:05:21;;;;;;;1.00;1.00;;;6.20;20.40;;;;;;5005921;28;20453;-82
2023/02/03 04:07:49;;;;;;;1.00;1.00;;;6.20;1.00;;;;;;4996948;28;20457;-81
2023/02/03 04:10:25;;;;;;;1.10;1.10;;;6.20;1.00;;;;;;5005234;28;20458;-81
2023/02/03 04:12:54;;;;;;;1.00;1.00;;;6.20;1.00;;;;;;5002232;28;20446;-80
2023/02/03 04:15:22;;;;;;;1.20;1.10;;;6.20;99.90;;;;;;5000377;28;20465;-81
2023/02/03 04:17:50;;;;;;;1.20;1.20;;;6.10;1.00;;;;;;5007690;28;20481;-81
2023/02/03 04:20:21;;;;;;;1.10;1.10;;;6.20;1.00;;;;;;4999807;28;20528;-82
2023/02/03 04:22:49;;;;;;;1.10;1.10;;;6.20;91.90;;;;;;4998108;28;20466;-81
2023/02/03 04:25:17;;;;;;;1.30;1.30;;;6.10;99.90;;;;;;5012664;28;20473;-81
2023/02/03 04:27:45;;;;;;;1.20;1.20;;;6.10;1.00;;;;;;5005333;28;20489;-81
2023/02/03 04:30:14;;;;;;;1.33;1.23;;;6.20;1.00;;;;;;5000394;28;20461;-82
2023/02/03 04:32:42;;;;;;;1.30;1.30;;;6.20;1.00;;;;;;5001904;28;20477;-82
2023/02/03 04:35:11;;;;;;;1.30;1.30;;;6.20;1.00;;;;;;5005001;28;20462;-81
2023/02/03 04:37:41;;;;;;;1.20;1.20;;;6.20;1.00;;;;;;5001435;28;20466;-83
2023/02/03 04:40:11;;;;;;;1.40;1.40;;;6.10;99.90;;;;;;5005642;28;20472;-80
2023/02/03 04:42:39;;;;;;;1.30;1.30;;;6.10;99.90;;;;;;5006629;28;20477;-82
2023/02/03 04:45:09;;;;;;;1.40;1.40;;;6.10;99.90;;;;;;5004622;28;20464;-82
2023/02/03 04:47:38;;;;;;;1.57;1.57;;;6.10;99.90;;;;;;5003348;28;20486;-82
2023/02/03 04:50:07;;;;;;;1.70;1.60;;;6.10;99.90;;;;;;5001706;28;20595;-81
2023/02/03 04:52:35;;;;;;;1.30;1.30;;;6.10;99.90;;;;;;5003832;28;20449;-81
2023/02/03 04:55:06;;;;;;;1.53;1.53;;;6.10;99.90;;;;;;4999820;28;20483;-84
2023/02/03 04:57:34;;;;;;;1.30;1.30;;;6.20;99.90;;;;;;5002005;28;20473;-81
2023/02/03 05:00:02;;;;;;;1.70;1.50;;;6.00;99.90;;;;;;4998961;28;20453;-82
2023/02/03 05:02:30;;;;;;;1.40;1.40;;;6.10;99.90;;;;;;5004021;28;20470;-81
2023/02/03 05:04:58;;;;;;;1.40;1.40;;;6.10;99.90;;;;;;5000313;28;20453;-81
2023/02/03 05:07:27;;;;;;;1.73;1.50;;;6.10;99.90;;;;;;5003743;28;20468;-81
2023/02/03 05:09:55;;;;;;;1.50;1.40;;;6.10;99.90;;;;;;5000269;28;20453;-80
2023/02/03 05:12:24;;;;;;;1.50;1.50;;;6.20;99.90;;;;;;5002302;28;20477;-78
2023/02/03 05:14:52;;;;;;;1.47;1.40;;;6.20;99.90;;;;;;4999472;28;20456;-78
2023/02/03 05:17:20;;;;;;;1.83;1.60;;;6.20;1.00;;;;;;4997565;28;20457;-81
2023/02/03 05:19:48;;;;;;;1.50;1.50;;;6.20;1.00;;;;;;4999225;28;20453;-82
2023/02/03 05:22:17;;;;;;;1.40;1.40;;;6.20;99.90;;;;;;5007137;28;20472;-82
2023/02/03 05:24:45;;;;;;;1.87;1.77;;;6.20;99.90;;;;;;5003765;28;20463;-80
2023/02/03 05:27:13;;;;;;;1.73;1.70;;;6.30;99.90;;;;;;5007644;28;20469;-84
2023/02/03 05:29:43;;;;;;;1.63;1.60;;;6.20;99.90;;;;;;5010742;28;20476;-82
2023/02/03 05:32:11;;;;;;;1.70;1.60;;;6.20;99.90;;;;;;5005942;28;20453;-83
2023/02/03 05:34:39;;;;;;;1.70;1.60;;;6.20;99.90;;;;;;5006669;28;20465;-83
2023/02/03 05:37:09;;;;;;;1.60;1.50;;;6.20;99.90;;;;;;5011856;28;20584;-82
2023/02/03 05:39:37;;;;;;;1.50;1.50;;;6.20;99.90;;;;;;5015590;28;20554;-83
2023/02/03 05:42:04;;;;;;;1.77;1.50;;;6.30;99.90;;;;;;5012669;28;20539;-83
2023/02/03 05:44:33;;;;;;;1.60;1.60;;;6.10;99.90;;;;;;5012594;28;21291;-83
2023/02/03 05:47:02;;;;;;;1.40;1.40;;;6.10;99.90;;;;;;5014474;28;20480;-84
2023/02/03 05:49:31;;;;;;;1.70;1.60;;;6.20;99.90;;;;;;5010050;28;20461;-82
2023/02/03 05:51:59;;;;;;;1.80;1.70;;;6.20;99.90;;;;;;5007868;28;20454;-84
2023/02/03 05:54:27;;;;;;;1.63;1.53;;;6.20;99.90;;;;;;5006901;28;20476;-83
2023/02/03 05:56:55;;;;;;;1.83;1.70;;;6.20;99.90;;;;;;5007316;28;20461;-81
2023/02/03 05:59:23;;;;;;;1.40;1.40;;;6.20;99.90;;;;;;5009707;28;20547;-83
2023/02/03 06:01:51;;;;;;;1.50;1.40;;;6.10;99.90;;;;;;5007376;28;20911;-84
2023/02/03 06:04:21;;;;;;;1.80;1.70;;;6.10;99.90;;;;;;5004875;28;20487;-82
2023/02/03 06:06:49;;;;;;;1.40;1.40;;;6.10;99.90;;;;;;5003703;28;20987;-84
2023/02/03 06:09:17;;;;;;;1.53;1.40;;;6.10;99.90;;;;;;5005682;28;20480;-83
2023/02/03 06:11:45;;;;;;;1.40;1.40;;;6.10;99.90;;;;;;5005063;28;20818;-82
2023/02/03 06:14:13;;;;;;;1.40;1.40;;;6.10;96.30;;;;;;5005260;28;20465;-83
2023/02/03 06:16:41;;;;;;;1.50;1.40;;;6.10;94.90;;;;;;4999836;28;20453;-83
2023/02/03 06:19:10;;;;;;;1.53;1.40;;;6.20;66.40;;;;;;5005305;28;20466;-83
2023/02/03 06:21:39;;;;;;;1.83;1.43;;;6.10;1.00;;;;;;5004319;28;21367;-80
2023/02/03 06:24:08;;;;;;;2.00;1.40;;;6.10;1.00;;;;;;4999944;28;20509;-82
2023/02/03 06:26:36;;;;;;;1.53;1.40;;;6.10;48.80;;;;;;5006481;28;21542;-83
2023/02/03 06:29:04;;;;;;;1.40;1.30;;;6.00;1.00;;;;;;5003628;28;20517;-83
2023/02/03 06:31:32;;;;;;;1.70;1.60;;;5.90;66.70;;;;;;5002532;28;21411;-82
2023/02/03 06:34:01;;;;;;;1.70;1.60;;;6.00;91.10;;;;;;5000478;28;21027;-83
2023/02/03 06:36:29;;;;;;;1.63;1.40;;;6.00;1.00;;;;;;5003041;28;20446;-84
2023/02/03 06:38:59;;;;;;;1.20;1.20;;;6.00;99.90;;;;;;5000405;28;20473;-82
2023/02/03 06:41:29;;;;;;;1.70;1.40;;;6.00;1.00;;;;;;5003986;28;20441;-83
2023/02/03 06:43:57;;;;;;;1.70;1.30;;;6.00;1.00;;;;;;5001501;28;20496;-83
2023/02/03 06:46:28;;;;;;;1.30;1.20;;;6.00;1.00;;;;;;5003138;28;20488;-84
2023/02/03 06:48:56;;;;;;;1.27;1.27;;;6.00;1.00;;;;;;5002793;28;21071;-83
2023/02/03 06:51:25;;;;;;;2.43;1.63;;;6.00;1.00;;;;;;5002906;28;20472;-82
2023/02/03 06:53:53;;;;;;;1.50;1.40;;;6.00;99.90;;;;;;4998945;28;20458;-79
2023/02/03 06:56:22;;;;;;;1.70;1.60;;;6.00;1.00;;;;;;5004100;28;20488;-82
2023/02/03 06:58:50;;;;;;;1.60;1.50;;;6.00;70.30;;;;;;5004156;28;20234;-82
2023/02/03 07:01:19;;;;;;;1.45;1.35;;;6.10;96.70;;;;;;5004315;28;20462;-83
2023/02/03 07:03:47;;;;;;;1.50;1.43;;;6.00;1.00;;;;;;4999775;28;20257;-83
2023/02/03 07:06:15;;;;;;;1.40;1.40;;;6.00;99.90;;;;;;5005501;28;20529;-82
2023/02/03 07:08:44;;;;;;;1.50;1.40;;;6.00;99.90;;;;;;5002502;28;20580;-82
2023/02/03 07:11:12;;;;;;;1.70;1.60;;;6.00;1.00;;;;;;5005262;28;20467;-83
2023/02/03 07:13:42;;;;;;;2.07;1.80;;;6.10;99.90;;;;;;5001935;28;20203;-82
2023/02/03 07:16:10;;;;;;;1.80;1.70;;;5.90;99.90;;;;;;5007211;28;20459;-83
2023/02/03 07:18:39;;;;;;;1.60;1.50;;;5.70;99.90;;;;;;5005207;28;20573;-82
2023/02/03 07:21:16;;;;;;;1.60;1.60;;;5.70;1.00;;;;;;5005282;28;20457;-82
2023/02/03 07:23:46;;;;;;;1.50;1.40;;;5.70;1.00;;;;;;5002658;28;20231;-82
2023/02/03 07:26:14;;;;;;;1.80;1.70;;;5.80;99.90;;;;;;5007685;28;20449;-83
2023/02/03 07:28:44;;;;;;;3.30;1.70;;;5.70;99.90;;;;;;5002180;28;20229;-83
2023/02/03 07:31:12;;;;;;;1.80;1.70;;;5.80;99.90;;;;;;5002858;28;20481;-82
2023/02/03 07:33:40;;;;;;;1.80;1.70;;;5.70;1.00;;;;;;4999946;28;20449;-83
2023/02/03 07:36:10;;;;;;;5.33;1.70;;;5.70;1.00;;;;;;4999500;28;20550;-83
2023/02/03 07:38:38;;;;;;;2.28;1.70;;;5.60;1.00;;;;;;5000948;28;20486;-83
2023/02/03 07:41:06;;;;;;;1.60;1.50;;;5.60;1.00;;;;;;5005057;28;20187;-82
2023/02/03 07:43:34;;;;;;;1.93;1.80;;;5.70;1.00;;;;;;5002240;28;21071;-83
2023/02/03 07:46:04;;;;;;;2.27;2.10;;;5.70;1.00;;;;;;5003754;28;20465;-82
2023/02/03 07:48:33;;;;;;;2.07;1.97;;;5.70;1.00;;;;;;4999043;28;20486;-83
2023/02/03 07:51:01;;;;;;;2.05;1.90;;;5.80;1.00;;;;;;5002657;28;20888;-83
2023/02/03 07:53:29;;;;;;;2.90;2.40;;;5.70;1.00;;;;;;5003593;28;20196;-83
2023/02/03 07:56:00;;;;;;;2.20;2.10;;;5.60;1.00;;;;;;4992046;28;20550;-82
2023/02/03 07:58:28;;;;;;;2.90;2.70;;;5.70;1.00;;;;;;4995404;28;20485;-82
2023/02/03 08:00:57;;;;;;;2.37;2.17;;;5.70;1.00;;;;;;5006152;28;20795;-80
2023/02/03 08:03:26;;;;;;;2.13;1.93;;;5.80;1.00;;;;;;5000619;28;20485;-81
2023/02/03 08:05:54;;;;;;;2.53;2.43;;;5.80;1.00;;;;;;5007103;28;20456;-81
2023/02/03 08:08:22;;;;;;;4.60;2.43;;;5.90;1.00;;;;;;5006207;28;20514;-82
2023/02/03 08:10:51;;;;;;;3.00;2.80;;;5.80;1.00;;;;;;5006590;28;20473;-82
2023/02/03 08:13:19;;;;;;;2.20;2.10;;;5.80;1.00;;;;;;5005303;28;20602;-82
2023/02/03 08:15:47;;;;;;;7.80;7.00;;;5.90;1.00;;;;;;5001947;28;20576;-82
2023/02/03 08:18:16;;;;;;;2.40;1.90;;;6.00;1.00;;;;;;5005314;28;20477;-83
2023/02/03 08:20:47;;;;;;;2.40;2.30;;;6.00;1.00;;;;;;5004865;28;20488;-82
2023/02/03 08:23:15;;;;;;;2.13;2.00;;;5.90;1.00;;;;;;5005851;28;20883;-83
2023/02/03 08:25:43;;;;;;;2.53;2.43;;;5.90;1.00;;;;;;5005359;28;20450;-81
2023/02/03 08:28:11;;;;;;;2.17;1.97;;;6.00;1.00;;;;;;5001984;28;20480;-82
2023/02/03 08:30:39;;;;;;;2.60;2.40;;;5.90;1.00;;;;;;5002778;28;20465;-82
2023/02/03 08:33:08;;;;;;;2.17;1.97;;;5.90;1.00;;;;;;5001432;28;20473;-82
2023/02/03 08:35:36;;;;;;;2.60;2.27;;;6.00;1.00;;;;;;5001647;28;21469;-82
2023/02/03 08:38:06;;;;;;;3.70;2.07;;;6.00;1.00;;;;;;4998668;28;20476;-82
2023/02/03 08:40:34;;;;;;;2.50;2.27;;;6.00;1.00;;;;;;4997254;28;20493;-82
2023/02/03 08:43:02;;;;;;;2.63;2.43;;;6.10;1.00;;;;;;4992852;28;20486;-82
2023/02/03 08:45:30;;;;;;;3.87;3.57;;;6.10;1.00;;;;;;4994988;28;20467;-82
2023/02/03 08:47:59;;;;;;;1.80;1.70;;;6.10;1.00;;;;;;4993788;28;20486;-83
2023/02/03 08:50:27;;;;;;;2.20;2.00;;;6.10;1.00;;;;;;4984428;28;20731;-83
2023/02/03 08:52:56;;;;;;;2.50;2.30;;;6.00;1.00;;;;;;4997726;28;20449;-82
2023/02/03 08:55:25;;;;;;;3.13;2.00;;;6.10;1.00;;;;;;4993117;28;20453;-82
2023/02/03 08:57:53;;;;;;;7.03;2.67;;;6.10;1.00;;;;;;4998480;28;20539;-82
2023/02/03 09:00:22;;;;;;;3.03;2.03;;;6.20;1.00;;;;;;5001240;28;20462;-82
2023/02/03 09:02:50;;;;;;;2.20;2.07;;;6.20;1.00;;;;;;5000962;28;20450;-82
2023/02/03 09:05:18;;;;;;;2.10;2.00;;;6.20;1.00;;;;;;5006069;28;20486;-82
2023/02/03 09:07:46;;;;;;;2.07;1.90;;;6.20;1.00;;;;;;5001765;28;20470;-82
2023/02/03 09:10:15;;;;;;;2.67;2.57;;;6.20;1.00;;;;;;5005260;28;20480;-82
2023/02/03 09:12:45;;;;;;;2.20;2.10;;;6.20;1.00;;;;;;5006627;28;20453;-78
2023/02/03 09:15:13;;;;;;;2.37;2.23;;;6.20;1.00;;;;;;5006087;28;20460;-82
2023/02/03 09:17:41;;;;;;;3.10;2.40;;;6.20;1.00;;;;;;5005200;28;20469;-82
2023/02/03 09:20:12;;;;;;;2.80;2.70;;;6.20;1.00;;;;;;5004382;28;20515;-82
2023/02/03 09:22:40;;;;;;;2.70;2.37;;;6.20;1.00;;;;;;5001650;28;20536;-81
2023/02/03 09:25:09;;;;;;;2.63;2.53;;;6.30;1.00;;;;;;4999589;28;21018;-82
2023/02/03 09:27:37;;;;;;;2.93;2.73;;;6.30;1.00;;;;;;5001450;28;20466;-82
2023/02/03 09:30:08;;;;;;;2.30;2.20;;;6.30;1.00;;;;;;5004121;28;20458;-82
2023/02/03 09:32:36;;;;;;;2.40;2.30;;;6.40;1.00;;;;;;4999719;28;20442;-82
2023/02/03 09:35:05;;;;;;;4.50;4.03;;;6.30;1.00;;;;;;4999604;28;20458;-81
2023/02/03 09:37:33;;;;;;;3.03;2.93;;;6.40;1.00;;;;;;5004851;28;20530;-81
2023/02/03 09:40:01;;;;;;;2.10;2.00;;;6.40;1.00;;;;;;5005907;28;20883;-82
2023/02/03 09:42:54;;;;;;;2.47;2.37;;;6.50;1.00;;;;;;5002150;28;20499;-82
2023/02/03 09:45:26;;;;;;;4.67;3.20;;;6.40;1.00;;;;;;5007392;28;20564;-82
2023/02/03 09:48:01;;;;;;;2.53;2.43;;;6.50;1.00;;;;;;5005664;28;20488;-82
2023/02/03 09:50:32;;;;;;;2.97;2.87;;;6.60;1.00;;;;;;5003505;28;20456;-81
2023/02/03 09:53:08;;;;;;;2.30;2.20;;;6.50;1.00;;;;;;5004879;28;20472;-82
2023/02/03 09:55:39;;;;;;;2.27;2.17;;;6.60;1.00;;;;;;5000625;28;20461;-82
2023/02/03 09:58:12;;;;;;;2.00;1.90;;;6.60;1.00;;;;;;5004008;28;20485;-82
2023/02/03 10:00:44;;;;;;;2.00;1.90;;;6.60;1.00;;;;;;4999068;28;20449;-82
2023/02/03 10:03:22;;;;;;;2.23;2.13;;;6.60;1.00;;;;;;4997916;28;20973;-82
2023/02/03 10:06:12;;;;;;;2.30;2.20;;;6.60;1.00;;;;;;5004215;28;20455;-82
2023/02/03 10:09:02;;;;;;;2.23;2.13;;;6.60;1.00;;;;;;5002240;28;20476;-81
2023/02/03 10:11:44;;;;;;;2.30;2.20;;;6.60;1.00;;;;;;5002035;28;20462;-82
2023/02/03 10:14:27;;;;;;;3.37;3.17;;;6.60;1.00;;;;;;5003403;28;20797;-82
2023/02/03 10:17:11;;;;;;;3.00;2.50;;;6.70;1.00;;;;;;5018553;28;20454;-81
2023/02/03 10:19:45;;;;;;;2.57;2.40;;;6.70;1.00;;;;;;4994709;28;21056;-83
2023/02/03 10:22:16;;;;;;;2.53;2.43;;;6.60;1.00;;;;;;4991255;28;20493;-77
2023/02/03 10:24:48;;;;;;;2.70;2.30;;;6.80;1.00;;;;;;4986152;28;20489;-82
2023/02/03 10:27:19;;;;;;;2.20;2.10;;;6.80;1.00;;;;;;4997512;28;20529;-82
2023/02/03 10:29:55;;;;;;;2.20;2.20;;;6.70;1.00;;;;;;5000575;28;20810;-82
2023/02/03 10:32:27;;;;;;;2.77;2.67;;;6.80;1.00;;;;;;5028064;28;20983;-82
2023/02/03 10:34:56;;;;;;;4.20;3.80;;;6.80;1.00;;;;;;4993966;28;20449;-81
2023/02/03 10:37:29;;;;;;;2.87;2.77;;;6.80;1.00;;;;;;4990192;28;21110;-82
2023/02/03 10:39:59;;;;;;;2.77;2.67;;;6.80;1.00;;;;;;4995705;28;20462;-82
2023/02/03 10:43:46;;;;;;;2.80;2.60;;;6.90;1.00;;;;;;4996515;28;20453;-82
2023/02/03 10:45:19;;;;;;;2.47;2.37;;;6.90;1.00;;;;;;5010150;28;20502;-82
2023/02/03 10:47:52;;;;;;;2.53;2.40;;;7.00;1.00;;;;;;5010716;28;21076;-83
2023/02/03 10:50:22;;;;;;;2.80;2.70;;;7.00;1.00;;;;;;5006136;28;20520;-82
2023/02/03 10:53:25;;;;;;;2.67;2.57;;;7.00;1.00;;;;;;5006836;28;20455;-82
2023/02/03 10:56:02;;;;;;;3.13;2.93;;;7.00;1.00;;;;;;5004986;28;20451;-82
2023/02/03 10:58:32;;;;;;;2.17;2.07;;;7.00;99.90;;;;;;5023898;28;20948;-82
2023/02/03 11:01:09;;;;;;;1.93;1.93;;;6.90;1.00;;;;;;5006991;28;20494;-82
2023/02/03 11:03:41;;;;;;;2.20;2.10;;;7.00;99.90;;;;;;5003852;28;21036;-83
2023/02/03 11:06:11;;;;;;;2.10;2.00;;;7.00;99.90;;;;;;5006503;28;20539;-82
2023/02/03 11:08:44;;;;;;;1.90;1.80;;;7.10;99.90;;;;;;5004148;28;20573;-82
2023/02/03 11:11:15;;;;;;;2.20;2.10;;;7.10;99.90;;;;;;5033958;28;20479;-82
2023/02/03 11:13:43;;;;;;;2.00;1.90;;;7.00;99.90;;;;;;5005626;28;20444;-82
2023/02/03 11:16:16;;;;;;;1.90;1.80;;;7.00;99.90;;;;;;5003376;28;20463;-83
2023/02/03 11:18:54;;;;;;;2.13;2.03;;;7.10;99.90;;;;;;5010260;28;20470;-82
2023/02/03 11:21:25;;;;;;;1.80;1.80;;;7.10;99.90;;;;;;5002530;28;20448;-81
2023/02/03 11:24:04;;;;;;;1.90;1.80;;;7.10;99.90;;;;;;5001227;28;20451;-82
2023/02/03 11:26:35;;;;;;;2.40;2.00;;;7.10;99.90;;;;;;5002948;28;20452;-81
2023/02/03 11:29:07;;;;;;;2.33;2.23;;;7.10;99.90;;;;;;5005300;28;22948;-82
2023/02/03 11:31:37;;;;;;;4.20;3.90;;;7.20;66.90;;;;;;5011187;28;20467;-82
2023/02/03 11:34:10;;;;;;;2.17;2.07;;;7.30;1.00;;;;;;4998247;28;20454;-82
2023/02/03 11:36:38;;;;;;;1.97;1.97;;;7.10;1.00;;;;;;5004064;28;20466;-82
2023/02/03 11:39:19;;;;;;;2.27;1.80;;;7.20;1.00;;;;;;5001123;28;20488;-82
2023/02/03 11:41:48;;;;;;;1.70;1.70;;;7.10;1.00;;;;;;5000319;28;20938;-82
2023/02/03 11:44:20;;;;;;;1.90;1.90;;;7.10;1.00;;;;;;4994675;28;21014;-82
2023/02/03 11:46:53;;;;;;;1.73;1.73;;;7.30;1.00;;;;;;4994116;28;20452;-82
2023/02/03 11:49:46;;;;;;;2.33;1.90;;;7.20;1.00;;;;;;4993504;28;21606;-82
2023/02/03 11:52:35;;;;;;;1.90;1.80;;;7.30;1.00;;;;;;4998015;28;20447;-81
2023/02/03 11:55:14;;;;;;;2.00;1.90;;;7.20;99.90;;;;;;4995915;28;20449;-81
2023/02/03 11:57:50;;;;;;;1.80;1.80;;;7.20;1.00;;;;;;4994948;28;20484;-81
2023/02/03 12:00:29;;;;;;;2.33;2.23;;;7.20;1.00;;;;;;4994684;28;20453;-82
2023/02/03 12:03:27;;;;;;;2.23;2.13;;;7.20;99.90;;;;;;4997550;28;20532;-83
2023/02/03 12:06:19;;;;;;;1.73;1.73;;;7.20;17.20;;;;;;5002706;28;21049;-82
2023/02/03 12:09:07;;;;;;;1.90;1.70;;;7.20;1.00;;;;;;4998258;28;20479;-82
2023/02/03 12:12:01;;;;;;;1.80;1.77;;;7.20;1.00;;;;;;5002956;28;20489;-82
2023/02/03 12:14:45;;;;;;;1.87;1.77;;;7.30;99.90;;;;;;4999134;28;20462;-82
2023/02/03 12:17:26;;;;;;;1.70;1.60;;;7.40;1.00;;;;;;5002325;28;20458;-82
2023/02/03 12:20:06;;;;;;;1.60;1.60;;;7.40;99.90;;;;;;4998888;28;20701;-82
2023/02/03 12:22:44;;;;;;;1.67;1.63;;;7.30;1.00;;;;;;5001707;28;20469;-82
2023/02/03 12:25:27;;;;;;;1.57;1.57;;;7.40;1.00;;;;;;5003630;28;21025;-82
2023/02/03 12:28:05;;;;;;;2.17;2.07;;;7.40;1.00;;;;;;5002153;28;20465;-81
2023/02/03 12:30:39;;;;;;;1.77;1.67;;;7.40;1.00;;;;;;5003226;28;20449;-82
2023/02/03 12:33:16;;;;;;;1.80;1.70;;;7.40;99.90;;;;;;4995649;28;20538;-82
2023/02/03 12:35:51;;;;;;;1.83;1.73;;;7.40;99.90;;;;;;5001551;28;20473;-81
2023/02/03 12:38:32;;;;;;;1.50;1.50;;;7.40;1.00;;;;;;4998007;28;20475;-80
2023/02/03 12:41:06;;;;;;;1.67;1.60;;;7.30;99.90;;;;;;5002330;28;20466;-83
2023/02/03 12:43:39;;;;;;;1.70;1.60;;;7.20;99.90;;;;;;4991796;28;20470;-81
2023/02/03 12:46:14;;;;;;;1.80;1.80;;;7.20;99.90;;;;;;4992649;28;20522;-81
2023/02/03 12:48:50;;;;;;;1.70;1.60;;;7.20;99.90;;;;;;4989116;28;20542;-82
2023/02/03 12:51:28;;;;;;;1.60;1.60;;;7.30;99.90;;;;;;4994494;28;20461;-82
2023/02/03 12:54:01;;;;;;;1.67;1.67;;;7.30;1.00;;;;;;4995508;28;20460;-83
2023/02/03 12:56:38;;;;;;;1.60;1.50;;;7.40;1.00;;;;;;5001648;28;20865;-82
2023/02/03 12:59:14;;;;;;;1.50;1.50;;;7.50;99.90;;;;;;5001196;28;20479;-83
2023/02/03 13:01:49;;;;;;;1.70;1.60;;;7.50;99.90;;;;;;4998886;28;20472;-82
2023/02/03 13:04:27;;;;;;;1.50;1.50;;;7.50;99.90;;;;;;4999089;28;20449;-83
2023/02/03 13:07:03;;;;;;;1.90;1.80;;;7.40;1.00;;;;;;5002149;28;20472;-83
2023/02/03 13:09:38;;;;;;;2.67;1.73;;;7.50;1.00;;;;;;5001867;28;20480;-82
2023/02/03 13:12:12;;;;;;;1.57;1.57;;;7.50;1.00;;;;;;5002632;28;21012;-82
2023/02/03 13:14:45;;;;;;;1.70;1.70;;;7.50;1.00;;;;;;5001511;28;20461;-83
2023/02/03 13:17:18;;;;;;;1.50;1.50;;;7.50;1.00;;;;;;5005319;28;21049;-83
2023/02/03 13:19:49;;;;;;;1.53;1.53;;;7.50;99.90;;;;;;5004540;28;20443;-82
2023/02/03 13:22:22;;;;;;;1.60;1.60;;;7.50;99.90;;;;;;5003243;28;20563;-82
2023/02/03 13:24:56;;;;;;;1.60;1.50;;;7.50;99.90;;;;;;5002288;28;20462;-83
2023/02/03 13:27:45;;;;;;;1.60;1.60;;;7.50;99.90;;;;;;4995705;28;20494;-81